createdAt,value
2019-06-01T00:00:13.779Z,0.75
2019-06-01T00:02:40.778Z,0.80
2019-06-01T00:05:07.289Z,0.90
2019-06-01T00:07:33.608Z,0.80
2019-06-01T00:09:59.904Z,1.05
2019-06-01T00:12:26.358Z,1.05
2019-06-01T00:14:52.771Z,0.75
2019-06-01T00:17:19.222Z,0.90
2019-06-01T00:19:46.272Z,0.75
2019-06-01T00:22:12.688Z,0.80
2019-06-01T00:24:39.149Z,0.80
2019-06-01T00:27:05.667Z,1.00
2019-06-01T00:29:32.064Z,0.90
2019-06-01T00:31:58.369Z,0.95
2019-06-01T00:34:24.675Z,0.80
2019-06-01T00:36:51.953Z,1.00
2019-06-01T00:39:18.651Z,1.10
2019-06-01T00:41:45.947Z,0.85
2019-06-01T00:44:12.371Z,1.00
2019-06-01T00:46:38.880Z,1.10
2019-06-01T00:49:05.207Z,0.98
2019-06-01T00:51:31.946Z,0.90
2019-06-01T00:53:58.339Z,0.93
2019-06-01T00:56:24.659Z,1.10
2019-06-01T00:58:51.977Z,0.82
2019-06-01T01:01:18.416Z,0.90
2019-06-01T01:03:45.962Z,0.98
2019-06-01T01:06:12.440Z,1.10
2019-06-01T01:08:38.849Z,1.05
2019-06-01T01:11:05.459Z,0.80
2019-06-01T01:13:31.941Z,0.90
2019-06-01T01:15:58.432Z,0.90
2019-06-01T01:18:24.872Z,0.80
2019-06-01T01:20:52.043Z,0.80
2019-06-01T01:23:18.524Z,0.93
2019-06-01T01:25:44.818Z,0.75
2019-06-01T01:28:11.242Z,0.80
2019-06-01T01:30:37.882Z,0.70
2019-06-01T01:33:04.194Z,0.80
2019-06-01T01:35:30.494Z,0.82
2019-06-01T01:37:58.708Z,1.10
2019-06-01T01:40:26.412Z,0.90
2019-06-01T01:42:52.739Z,0.80
2019-06-01T01:45:19.144Z,0.70
2019-06-01T01:47:45.551Z,0.85
2019-06-01T01:50:11.960Z,0.93
2019-06-01T01:52:38.260Z,1.00
2019-06-01T01:55:05.083Z,1.00
2019-06-01T01:57:31.391Z,0.90
2019-06-01T01:59:58.019Z,1.00
2019-06-01T02:02:24.397Z,0.80
2019-06-01T02:04:51.663Z,1.02
2019-06-01T02:07:18.227Z,0.50
2019-06-01T02:09:44.524Z,0.80
2019-06-01T02:12:10.828Z,0.70
2019-06-01T02:14:37.142Z,0.80
2019-06-01T02:17:03.456Z,0.82
2019-06-01T02:19:29.744Z,0.90
2019-06-01T02:21:56.470Z,0.72
2019-06-01T02:24:23.075Z,0.70
2019-06-01T02:26:49.387Z,0.60
2019-06-01T02:29:15.717Z,0.70
2019-06-01T02:31:43.023Z,0.75
2019-06-01T02:34:09.832Z,0.88
2019-06-01T02:36:36.240Z,0.90
2019-06-01T02:39:08.042Z,0.85
2019-06-01T02:41:34.442Z,0.80
2019-06-01T02:44:01.635Z,0.85
2019-06-01T02:46:28.750Z,0.82
2019-06-01T02:48:55.505Z,0.90
2019-06-01T02:51:22.059Z,0.93
2019-06-01T02:53:48.457Z,1.15
2019-06-01T02:56:14.787Z,0.70
2019-06-01T02:58:41.103Z,0.80
2019-06-01T03:01:33.803Z,0.70
2019-06-01T03:04:01.349Z,1.00
2019-06-01T03:06:28.582Z,1.10
2019-06-01T03:08:54.843Z,1.20
2019-06-01T03:11:21.956Z,1.12
2019-06-01T03:13:48.369Z,1.30
2019-06-01T03:16:15.184Z,1.30
2019-06-01T03:18:41.502Z,1.20
2019-06-01T03:21:07.933Z,1.15
2019-06-01T03:23:35.125Z,1.85
2019-06-01T03:26:02.053Z,1.55
2019-06-01T03:28:28.841Z,1.72
2019-06-01T03:30:55.367Z,1.50
2019-06-01T03:33:29.244Z,1.32
2019-06-01T03:35:55.579Z,1.32
2019-06-01T03:38:21.881Z,1.35
2019-06-01T03:40:48.223Z,1.35
2019-06-01T03:43:14.648Z,1.47
2019-06-01T03:45:40.951Z,1.40
2019-06-01T03:48:07.369Z,1.35
2019-06-01T03:50:33.779Z,1.40
2019-06-01T03:53:00.104Z,1.90
2019-06-01T03:55:26.411Z,1.47
2019-06-01T03:57:52.811Z,1.37
2019-06-01T04:00:19.154Z,1.45
2019-06-01T04:02:45.448Z,1.20
2019-06-01T04:05:11.778Z,1.07
2019-06-01T04:07:39.030Z,1.17
2019-06-01T04:10:05.813Z,1.20
2019-06-01T04:12:51.185Z,0.80
2019-06-01T04:15:17.993Z,1.00
2019-06-01T04:17:44.341Z,1.07
2019-06-01T04:20:10.677Z,0.90
2019-06-01T04:22:36.968Z,0.80
2019-06-01T04:25:05.981Z,1.10
2019-06-01T04:27:32.387Z,0.90
2019-06-01T04:29:58.938Z,1.10
2019-06-01T04:32:25.593Z,1.00
2019-06-01T04:34:52.036Z,0.93
2019-06-01T04:37:18.480Z,1.00
2019-06-01T04:39:45.198Z,0.95
2019-06-01T04:42:11.895Z,0.95
2019-06-01T04:44:38.417Z,0.80
2019-06-01T04:47:04.815Z,1.32
2019-06-01T04:49:31.953Z,0.90
2019-06-01T04:52:06.760Z,0.98
2019-06-01T04:54:33.527Z,1.10
2019-06-01T04:57:00.039Z,0.82
2019-06-01T04:59:26.462Z,0.80
2019-06-01T05:01:55.454Z,0.80
2019-06-01T05:04:22.715Z,1.15
2019-06-01T05:06:49.124Z,0.80
2019-06-01T05:09:15.854Z,0.78
2019-06-01T05:11:42.569Z,1.07
2019-06-01T05:14:09.688Z,0.90
2019-06-01T05:16:36.437Z,1.05
2019-06-01T05:19:02.940Z,0.80
2019-06-01T05:21:29.252Z,0.78
2019-06-01T05:23:55.697Z,0.90
2019-06-01T05:26:22.100Z,0.90
2019-06-01T05:28:48.427Z,0.80
2019-06-01T05:31:21.662Z,0.90
2019-06-01T05:33:42.862Z,1.15
2019-06-01T05:36:10.017Z,0.82
2019-06-01T05:38:36.625Z,0.70
2019-06-01T05:41:03.054Z,0.80
2019-06-01T05:43:29.363Z,0.82
2019-06-01T05:45:55.880Z,0.80
2019-06-01T05:48:25.448Z,0.65
2019-06-01T05:50:50.299Z,0.82
2019-06-01T05:53:16.785Z,0.78
2019-06-01T05:55:43.132Z,0.75
2019-06-01T05:58:10.861Z,0.70
2019-06-01T06:00:40.477Z,0.90
2019-06-01T06:03:06.784Z,0.90
2019-06-01T06:05:33.090Z,0.70
2019-06-01T06:07:59.433Z,1.05
2019-06-01T06:10:25.731Z,1.10
2019-06-01T06:12:52.285Z,1.27
2019-06-01T06:15:19.728Z,1.27
2019-06-01T06:17:47.063Z,1.50
2019-06-01T06:20:13.827Z,1.32
2019-06-01T06:22:41.253Z,1.27
2019-06-01T06:25:07.718Z,1.40
2019-06-01T06:27:34.035Z,1.10
2019-06-01T06:30:00.443Z,1.12
2019-06-01T06:32:26.987Z,1.20
2019-06-01T06:34:53.343Z,1.00
2019-06-01T06:37:19.812Z,1.30
2019-06-01T06:39:46.583Z,1.60
2019-06-01T06:42:13.994Z,1.30
2019-06-01T06:44:40.901Z,1.22
2019-06-01T06:47:07.410Z,1.20
2019-06-01T06:49:33.811Z,1.30
2019-06-01T06:52:00.344Z,1.40
2019-06-01T06:54:26.798Z,1.20
2019-06-01T06:56:53.310Z,1.10
2019-06-01T06:59:20.434Z,1.37
2019-06-01T07:01:47.015Z,1.15
2019-06-01T07:04:13.486Z,1.02
2019-06-01T07:06:40.107Z,1.15
2019-06-01T07:09:06.415Z,1.07
2019-06-01T07:11:33.130Z,1.05
2019-06-01T07:13:59.429Z,1.10
2019-06-01T07:16:26.246Z,0.90
2019-06-01T07:18:53.288Z,1.10
2019-06-01T07:21:19.757Z,1.10
2019-06-01T07:23:46.168Z,1.05
2019-06-01T07:26:12.500Z,1.00
2019-06-01T07:28:39.213Z,1.00
2019-06-01T07:31:05.809Z,1.22
2019-06-01T07:33:32.757Z,1.10
2019-06-01T07:35:59.249Z,0.95
2019-06-01T07:38:28.747Z,1.00
2019-06-01T07:40:54.339Z,1.07
2019-06-01T07:43:20.675Z,1.12
2019-06-01T07:45:48.055Z,0.98
2019-06-01T07:48:14.610Z,1.05
2019-06-01T07:50:40.916Z,1.05
2019-06-01T07:53:07.557Z,1.00
2019-06-01T07:55:34.246Z,0.90
2019-06-01T07:58:01.109Z,1.00
2019-06-01T08:00:28.898Z,0.98
2019-06-01T08:02:55.710Z,0.98
2019-06-01T08:05:23.325Z,0.90
2019-06-01T08:07:50.581Z,0.80
2019-06-01T08:10:16.887Z,0.90
2019-06-01T08:12:43.458Z,0.93
2019-06-01T08:15:10.130Z,0.90
2019-06-01T08:17:36.809Z,1.00
2019-06-01T08:20:04.560Z,1.02
2019-06-01T08:22:32.130Z,1.00
2019-06-01T08:24:58.826Z,1.00
2019-06-01T08:27:26.503Z,1.25
2019-06-01T08:29:53.254Z,0.90
2019-06-01T08:32:20.979Z,1.40
2019-06-01T08:34:47.727Z,1.45
2019-06-01T08:37:14.197Z,1.32
2019-06-01T08:39:41.789Z,1.40
2019-06-01T08:42:11.254Z,1.37
2019-06-01T08:44:42.120Z,1.47
2019-06-01T08:47:09.659Z,1.50
2019-06-01T08:49:39.658Z,1.60
2019-06-01T08:52:09.472Z,1.37
2019-06-01T08:54:36.302Z,1.10
2019-06-01T08:57:03.075Z,1.40
2019-06-01T08:59:30.735Z,1.40
2019-06-01T09:01:59.504Z,1.30
2019-06-01T09:04:26.620Z,1.17
2019-06-01T09:06:53.136Z,1.25
2019-06-01T09:09:19.848Z,1.35
2019-06-01T09:11:47.386Z,1.55
2019-06-01T09:14:16.429Z,1.37
2019-06-01T09:16:42.751Z,1.30
2019-06-01T09:19:11.273Z,1.20
2019-06-01T09:21:37.669Z,1.47
2019-06-01T09:24:04.749Z,1.40
2019-06-01T09:26:31.967Z,1.50
2019-06-01T09:29:01.212Z,1.25
2019-06-01T09:31:30.251Z,1.42
2019-06-01T09:34:01.100Z,1.35
2019-06-01T09:36:28.590Z,1.30
2019-06-01T09:38:55.129Z,1.30
2019-06-01T09:41:23.090Z,1.62
2019-06-01T09:43:54.635Z,1.60
2019-06-01T09:46:22.773Z,1.47
2019-06-01T09:48:54.923Z,1.40
2019-06-01T09:51:21.439Z,1.50
2019-06-01T09:53:47.844Z,1.20
2019-06-01T09:56:14.756Z,1.70
2019-06-01T09:58:41.489Z,1.40
2019-06-01T10:01:08.817Z,1.22
2019-06-01T10:03:36.477Z,1.55
2019-06-01T10:06:03.747Z,1.10
2019-06-01T10:08:32.610Z,1.40
2019-06-01T10:11:02.171Z,1.20
2019-06-01T10:13:32.961Z,1.30
2019-06-01T10:16:00.525Z,1.27
2019-06-01T10:18:27.299Z,1.22
2019-06-01T10:20:54.309Z,1.30
2019-06-01T10:23:20.743Z,1.30
2019-06-01T10:25:48.639Z,1.17
2019-06-01T10:28:18.121Z,1.30
2019-06-01T10:30:48.660Z,1.20
2019-06-01T10:33:15.153Z,1.50
2019-06-01T10:35:43.081Z,1.60
2019-06-01T10:38:11.578Z,1.65
2019-06-01T10:40:39.746Z,1.20
2019-06-01T10:43:07.276Z,1.15
2019-06-01T10:45:34.002Z,1.20
2019-06-01T10:48:03.399Z,1.20
2019-06-01T10:50:29.817Z,1.12
2019-06-01T10:52:56.403Z,1.30
2019-06-01T10:55:22.870Z,1.02
2019-06-01T10:57:49.763Z,1.00
2019-06-01T11:00:16.167Z,1.10
2019-06-01T11:02:43.367Z,1.20
2019-06-01T11:05:10.050Z,1.00
2019-06-01T11:07:36.857Z,1.00
2019-06-01T11:10:08.625Z,1.30
2019-06-01T11:12:35.320Z,1.00
2019-06-01T11:15:01.739Z,1.32
2019-06-01T11:17:28.152Z,1.15
2019-06-01T11:19:54.702Z,0.95
2019-06-01T11:22:31.751Z,1.20
2019-06-01T11:24:56.795Z,1.10
2019-06-01T11:27:23.337Z,1.10
2019-06-01T11:29:51.604Z,1.02
2019-06-01T11:32:18.044Z,0.90
2019-06-01T11:34:44.559Z,1.10
2019-06-01T11:37:15.511Z,0.82
2019-06-01T11:39:42.567Z,0.90
2019-06-01T11:42:09.365Z,1.00
2019-06-01T11:44:36.579Z,1.00
2019-06-01T11:47:03.570Z,0.85
2019-06-01T11:49:30.093Z,1.10
2019-06-01T11:51:56.766Z,0.90
2019-06-01T11:54:23.296Z,1.10
2019-06-01T11:56:49.723Z,1.02
2019-06-01T11:59:16.264Z,1.35
2019-06-01T12:01:46.015Z,1.07
2019-06-01T12:04:12.658Z,0.98
2019-06-01T12:06:39.786Z,1.00
2019-06-01T12:09:07.731Z,1.10
2019-06-01T12:11:35.733Z,1.00
2019-06-01T12:14:02.333Z,1.30
2019-06-01T12:16:28.705Z,1.10
2019-06-01T12:18:55.133Z,1.02
2019-06-01T12:21:21.467Z,1.30
2019-06-01T12:23:47.911Z,0.90
2019-06-01T12:26:14.261Z,1.20
2019-06-01T12:28:41.565Z,0.98
2019-06-01T12:31:12.681Z,1.47
2019-06-01T12:33:50.274Z,1.10
2019-06-01T12:36:16.693Z,1.15
2019-06-01T12:38:50.421Z,1.20
2019-06-01T12:41:17.089Z,1.40
2019-06-01T12:43:45.677Z,1.35
2019-06-01T12:46:12.045Z,1.20
2019-06-01T12:48:38.452Z,1.52
2019-06-01T12:51:04.904Z,1.45
2019-06-01T12:53:31.330Z,1.67
2019-06-01T12:55:57.730Z,1.50
2019-06-01T12:58:28.502Z,1.60
2019-06-01T13:00:54.813Z,1.25
2019-06-01T13:03:21.434Z,1.25
2019-06-01T13:05:47.856Z,1.20
2019-06-01T13:08:14.172Z,1.67
2019-06-01T13:10:41.028Z,1.10
2019-06-01T13:13:07.678Z,1.15
2019-06-01T13:15:34.146Z,0.72
2019-06-01T13:18:01.083Z,1.10
2019-06-01T13:20:32.069Z,1.00
2019-06-01T13:22:58.742Z,0.98
2019-06-01T13:25:25.272Z,1.02
2019-06-01T13:27:54.077Z,1.20
2019-06-01T13:30:20.485Z,1.17
2019-06-01T13:32:48.274Z,1.00
2019-06-01T13:35:15.424Z,1.10
2019-06-01T13:37:48.854Z,1.00
2019-06-01T13:40:15.244Z,0.98
2019-06-01T13:42:42.971Z,1.02
2019-06-01T13:45:09.430Z,1.12
2019-06-01T13:47:35.756Z,0.80
2019-06-01T13:50:06.596Z,1.00
2019-06-01T13:52:32.612Z,1.15
2019-06-01T13:54:59.055Z,1.00
2019-06-01T13:57:25.377Z,0.90
2019-06-01T13:59:55.569Z,1.00
2019-06-01T14:02:22.151Z,1.00
2019-06-01T14:04:49.474Z,1.00
2019-06-01T14:07:16.100Z,1.10
2019-06-01T14:09:42.506Z,1.00
2019-06-01T14:12:08.842Z,1.00
2019-06-01T14:14:35.151Z,1.07
2019-06-01T14:17:01.577Z,1.20
2019-06-01T14:19:27.876Z,1.12
2019-06-01T14:21:54.288Z,1.00
2019-06-01T14:24:20.828Z,1.12
2019-06-01T14:26:48.084Z,1.07
2019-06-01T14:29:14.782Z,1.10
2019-06-01T14:31:41.208Z,0.88
2019-06-01T14:34:07.634Z,1.02
2019-06-01T14:36:34.053Z,0.90
2019-06-01T14:39:00.355Z,1.50
2019-06-01T14:41:26.707Z,1.00
2019-06-01T14:43:53.681Z,1.10
2019-06-01T14:46:20.371Z,0.90
2019-06-01T14:48:47.423Z,0.98
2019-06-01T14:51:14.037Z,1.20
2019-06-01T14:53:40.396Z,1.00
2019-06-01T14:56:06.966Z,0.80
2019-06-01T14:58:33.332Z,0.80
2019-06-01T15:01:02.547Z,0.88
2019-06-01T15:03:32.551Z,0.95
2019-06-01T15:06:02.539Z,1.17
2019-06-01T15:08:32.089Z,1.30
2019-06-01T15:11:01.187Z,1.02
2019-06-01T15:13:31.568Z,0.90
2019-06-01T15:16:02.137Z,1.17
2019-06-01T15:18:33.396Z,0.98
2019-06-01T15:21:05.517Z,1.30
2019-06-01T15:23:37.192Z,1.00
2019-06-01T15:26:11.088Z,0.78
2019-06-01T15:28:44.230Z,1.02
2019-06-01T15:31:15.185Z,1.10
2019-06-01T15:36:19.654Z,1.00
2019-06-01T15:38:56.080Z,0.98
2019-06-01T15:41:26.167Z,1.00
2019-06-01T15:43:59.217Z,1.12
2019-06-01T15:46:34.905Z,0.90
2019-06-01T15:49:01.892Z,0.90
2019-06-01T15:51:28.590Z,1.00
2019-06-01T15:53:55.352Z,0.95
2019-06-01T15:56:23.727Z,0.90
2019-06-01T15:58:54.598Z,1.17
2019-06-01T16:01:18.585Z,0.98
2019-06-01T16:03:44.889Z,1.05
2019-06-01T16:06:11.339Z,0.80
2019-06-01T16:08:37.803Z,1.10
2019-06-01T16:11:06.286Z,1.00
2019-06-01T16:13:32.788Z,0.90
2019-06-01T16:16:01.906Z,1.00
2019-06-01T16:18:27.687Z,1.00
2019-06-01T16:20:54.006Z,0.88
2019-06-01T16:23:20.520Z,1.10
2019-06-01T16:25:57.395Z,1.00
2019-06-01T16:28:15.612Z,1.00
2019-06-01T16:30:42.425Z,1.25
2019-06-01T16:33:09.156Z,1.05
2019-06-01T16:35:35.602Z,0.90
2019-06-01T16:38:02.927Z,1.00
2019-06-01T16:40:30.939Z,1.20
2019-06-01T16:42:57.321Z,1.17
2019-06-01T16:45:24.040Z,1.20
2019-06-01T16:47:50.518Z,1.30
2019-06-01T16:50:18.749Z,0.93
2019-06-01T16:52:45.524Z,1.42
2019-06-01T16:55:14.239Z,1.10
2019-06-01T16:57:45.514Z,1.20
2019-06-01T17:00:13.048Z,1.17
2019-06-01T17:02:39.987Z,1.25
2019-06-01T17:05:08.458Z,1.02
2019-06-01T17:07:34.879Z,1.00
2019-06-01T17:10:19.522Z,1.12
2019-06-01T17:12:34.242Z,1.00
2019-06-01T17:15:05.029Z,1.30
2019-06-01T17:17:36.959Z,0.85
2019-06-01T17:20:05.671Z,1.00
2019-06-01T17:22:35.419Z,1.20
2019-06-01T17:25:05.823Z,1.05
2019-06-01T17:27:38.045Z,0.90
2019-06-01T17:30:11.503Z,0.90
2019-06-01T17:32:36.650Z,0.98
2019-06-01T17:35:09.393Z,1.00
2019-06-01T17:37:45.810Z,1.20
2019-06-01T17:40:15.953Z,1.65
2019-06-01T17:42:49.814Z,1.20
2019-06-01T17:45:17.978Z,1.07
2019-06-01T17:47:44.371Z,1.22
2019-06-01T17:50:11.762Z,0.95
2019-06-01T17:52:38.804Z,1.20
2019-06-01T17:55:05.135Z,1.37
2019-06-01T17:57:31.544Z,1.22
2019-06-01T17:59:57.845Z,1.20
2019-06-01T18:02:24.374Z,1.35
2019-06-01T18:04:50.964Z,1.70
2019-06-01T18:07:17.284Z,1.30
2019-06-01T18:09:43.598Z,1.40
2019-06-01T18:12:10.215Z,1.30
2019-06-01T18:14:36.827Z,1.60
2019-06-01T18:17:04.039Z,1.67
2019-06-01T18:19:30.758Z,1.70
2019-06-01T18:21:57.676Z,1.90
2019-06-01T18:24:24.015Z,1.52
2019-06-01T18:26:50.407Z,1.60
2019-06-01T18:29:17.252Z,1.67
2019-06-01T18:31:43.636Z,1.60
2019-06-01T18:34:09.931Z,1.72
2019-06-01T18:36:38.335Z,1.60
2019-06-01T18:39:05.536Z,1.82
2019-06-01T18:41:31.840Z,1.57
2019-06-01T18:43:58.156Z,1.52
2019-06-01T18:46:24.468Z,1.42
2019-06-01T18:48:50.784Z,1.67
2019-06-01T18:51:17.413Z,1.45
2019-06-01T18:53:43.838Z,1.98
2019-06-01T18:56:10.282Z,1.80
2019-06-01T18:58:36.593Z,1.37
2019-06-01T19:01:04.302Z,1.50
2019-06-01T19:03:30.844Z,1.62
2019-06-01T19:05:57.477Z,1.70
2019-06-01T19:08:23.906Z,1.90
2019-06-01T19:10:50.788Z,1.95
2019-06-01T19:13:17.260Z,1.80
2019-06-01T19:15:43.806Z,2.15
2019-06-01T19:18:10.433Z,1.80
2019-06-01T19:20:37.128Z,1.70
2019-06-01T19:23:03.687Z,1.95
2019-06-01T19:25:30.069Z,1.30
2019-06-01T19:27:57.740Z,2.08
2019-06-01T19:30:36.447Z,2.52
2019-06-01T19:33:04.509Z,2.30
2019-06-01T19:35:30.943Z,2.25
2019-06-01T19:37:57.864Z,2.00
2019-06-01T19:40:27.994Z,1.98
2019-06-01T19:42:54.409Z,2.02
2019-06-01T19:45:28.899Z,2.83
2019-06-01T19:47:48.929Z,3.00
2019-06-01T19:50:16.320Z,2.50
2019-06-01T19:52:42.828Z,2.22
2019-06-01T19:55:09.339Z,2.52
2019-06-01T19:57:35.684Z,2.30
2019-06-01T20:00:05.398Z,2.52
2019-06-01T20:02:34.163Z,2.33
2019-06-01T20:05:00.129Z,2.33
2019-06-01T20:07:26.466Z,2.27
2019-06-01T20:09:53.675Z,2.30
2019-06-01T20:12:20.588Z,2.58
2019-06-01T20:14:47.171Z,2.27
2019-06-01T20:17:13.571Z,2.42
2019-06-01T20:19:40.506Z,2.15
2019-06-01T20:22:06.940Z,2.20
2019-06-01T20:24:33.455Z,2.08
2019-06-01T20:26:59.798Z,2.17
2019-06-01T20:29:26.307Z,2.05
2019-06-01T20:31:52.729Z,2.52
2019-06-01T20:34:20.047Z,2.30
2019-06-01T20:36:46.581Z,2.37
2019-06-01T20:39:14.197Z,2.45
2019-06-01T20:41:40.987Z,2.70
2019-06-01T20:44:07.760Z,2.25
2019-06-01T20:46:34.191Z,2.20
2019-06-01T20:49:00.600Z,2.55
2019-06-01T20:51:27.978Z,1.70
2019-06-01T20:53:54.453Z,2.50
2019-06-01T20:56:21.479Z,2.10
2019-06-01T20:58:48.176Z,2.30
2019-06-01T21:01:15.588Z,2.22
2019-06-01T21:03:42.116Z,2.00
2019-06-01T21:06:08.419Z,2.52
2019-06-01T21:08:34.932Z,2.10
2019-06-01T21:11:01.235Z,2.15
2019-06-01T21:13:27.557Z,2.00
2019-06-01T21:15:53.926Z,2.02
2019-06-01T21:18:20.953Z,2.60
2019-06-01T21:20:47.857Z,1.82
2019-06-01T21:23:14.486Z,2.65
2019-06-01T21:25:41.398Z,1.85
2019-06-01T21:28:07.730Z,2.50
2019-06-01T21:30:34.132Z,2.25
2019-06-01T21:33:00.442Z,2.17
2019-06-01T21:35:26.861Z,2.37
2019-06-01T21:37:53.172Z,2.20
2019-06-01T21:40:19.721Z,2.60
2019-06-01T21:43:00.454Z,2.10
2019-06-01T21:45:15.401Z,2.20
2019-06-01T21:47:41.980Z,2.12
2019-06-01T21:50:08.295Z,2.55
2019-06-01T21:52:34.727Z,2.75
2019-06-01T21:55:01.027Z,2.17
2019-06-01T21:57:27.655Z,2.20
2019-06-01T21:59:53.975Z,2.40
2019-06-01T22:02:21.086Z,2.25
2019-06-01T22:04:48.017Z,2.15
2019-06-01T22:07:14.339Z,2.12
2019-06-01T22:09:40.653Z,2.35
2019-06-01T22:12:07.191Z,1.92
2019-06-01T22:14:33.684Z,2.05
2019-06-01T22:16:59.995Z,2.17
2019-06-01T22:19:26.300Z,2.22
2019-06-01T22:21:52.720Z,2.30
2019-06-01T22:24:19.729Z,2.35
2019-06-01T22:26:46.468Z,2.40
2019-06-01T22:29:12.971Z,2.00
2019-06-01T22:31:39.311Z,2.05
2019-06-01T22:34:05.620Z,2.15
2019-06-01T22:36:32.036Z,2.10
2019-06-01T22:38:58.560Z,2.33
2019-06-01T22:41:25.945Z,1.82
2019-06-01T22:43:52.523Z,1.80
2019-06-01T22:46:20.282Z,2.02
2019-06-01T22:48:47.199Z,1.85
2019-06-01T22:51:13.692Z,2.00
2019-06-01T22:53:40.001Z,2.37
2019-06-01T22:56:06.307Z,2.10
2019-06-01T22:58:32.642Z,1.85
2019-06-01T23:00:59.156Z,1.80
2019-06-01T23:03:25.847Z,2.15
2019-06-01T23:05:52.143Z,2.15
2019-06-01T23:08:18.447Z,1.90
2019-06-01T23:10:45.002Z,2.10
2019-06-01T23:13:11.308Z,2.00
2019-06-01T23:15:37.627Z,2.15
2019-06-01T23:18:04.044Z,1.95
2019-06-01T23:20:30.340Z,1.60
2019-06-01T23:22:56.807Z,2.25
2019-06-01T23:25:24.399Z,2.15
2019-06-01T23:27:51.128Z,1.87
2019-06-01T23:30:17.572Z,1.82
2019-06-01T23:32:43.884Z,1.90
2019-06-01T23:35:10.324Z,1.87
2019-06-01T23:37:36.625Z,2.17
2019-06-01T23:40:04.234Z,1.92
2019-06-01T23:42:30.863Z,1.80
2019-06-01T23:44:57.451Z,2.27
2019-06-01T23:47:25.579Z,2.20
2019-06-01T23:49:51.894Z,1.80
2019-06-01T23:52:18.303Z,1.60
2019-06-01T23:54:44.712Z,2.20
2019-06-01T23:57:11.325Z,1.90
2019-06-01T23:59:37.846Z,2.17
